sensor_id;sensor_type;location;lat;lon;timestamp;temperature;humidity
24148;DHT22;12309;51.450;-2.624;2023-05-10T00:00:22;11.60;99.90
24148;DHT22;12309;51.450;-2.624;2023-05-10T00:02:49;11.60;99.90
24148;DHT22;12309;51.450;-2.624;2023-05-10T00:05:15;11.80;99.90
24148;DHT22;12309;51.450;-2.624;2023-05-10T00:07:40;11.60;99.90
24148;DHT22;12309;51.450;-2.624;2023-05-10T00:10:10;11.70;99.90
24148;DHT22;12309;51.450;-2.624;2023-05-10T00:12:36;11.60;99.90
24148;DHT22;12309;51.450;-2.624;2023-05-10T00:15:02;11.70;99.90
24148;DHT22;12309;51.450;-2.624;2023-05-10T00:17:28;11.70;99.90
24148;DHT22;12309;51.450;-2.624;2023-05-10T00:19:54;11.70;99.90
24148;DHT22;12309;51.450;-2.624;2023-05-10T00:22:20;11.70;99.90
24148;DHT22;12309;51.450;-2.624;2023-05-10T00:24:46;11.80;99.90
24148;DHT22;12309;51.450;-2.624;2023-05-10T00:27:11;11.90;99.90
24148;DHT22;12309;51.450;-2.624;2023-05-10T00:29:37;12.00;99.90
24148;DHT22;12309;51.450;-2.624;2023-05-10T00:32:03;11.90;99.90
24148;DHT22;12309;51.450;-2.624;2023-05-10T00:34:28;11.90;99.90
24148;DHT22;12309;51.450;-2.624;2023-05-10T00:36:54;11.80;99.90
24148;DHT22;12309;51.450;-2.624;2023-05-10T00:39:20;11.90;99.90
24148;DHT22;12309;51.450;-2.624;2023-05-10T00:41:45;11.80;99.90
24148;DHT22;12309;51.450;-2.624;2023-05-10T00:44:11;11.80;99.90
24148;DHT22;12309;51.450;-2.624;2023-05-10T00:46:37;11.80;99.90
24148;DHT22;12309;51.450;-2.624;2023-05-10T00:49:02;11.80;99.90
24148;DHT22;12309;51.450;-2.624;2023-05-10T00:51:28;11.90;99.90
24148;DHT22;12309;51.450;-2.624;2023-05-10T00:53:54;11.90;99.90
24148;DHT22;12309;51.450;-2.624;2023-05-10T00:56:21;11.90;99.90
24148;DHT22;12309;51.450;-2.624;2023-05-10T00:58:48;11.90;99.90
24148;DHT22;12309;51.450;-2.624;2023-05-10T01:01:14;11.90;99.90
24148;DHT22;12309;51.450;-2.624;2023-05-10T01:03:40;12.00;99.90
24148;DHT22;12309;51.450;-2.624;2023-05-10T01:06:06;12.00;99.90
24148;DHT22;12309;51.450;-2.624;2023-05-10T01:08:32;12.00;99.90
24148;DHT22;12309;51.450;-2.624;2023-05-10T01:10:57;11.90;99.90
24148;DHT22;12309;51.450;-2.624;2023-05-10T01:16:01;11.90;99.90
24148;DHT22;12309;51.450;-2.624;2023-05-10T01:18:29;11.80;99.90
24148;DHT22;12309;51.450;-2.624;2023-05-10T01:21:38;11.80;99.90
24148;DHT22;12309;51.450;-2.624;2023-05-10T01:33:29;11.80;99.90
24148;DHT22;12309;51.450;-2.624;2023-05-10T01:36:05;11.80;99.90
24148;DHT22;12309;51.450;-2.624;2023-05-10T01:38:52;11.80;99.90
24148;DHT22;12309;51.450;-2.624;2023-05-10T01:41:24;11.80;99.90
24148;DHT22;12309;51.450;-2.624;2023-05-10T01:44:15;11.80;99.90
24148;DHT22;12309;51.450;-2.624;2023-05-10T01:46:42;11.70;99.90
24148;DHT22;12309;51.450;-2.624;2023-05-10T01:49:15;11.70;99.90
24148;DHT22;12309;51.450;-2.624;2023-05-10T01:51:46;11.60;99.90
24148;DHT22;12309;51.450;-2.624;2023-05-10T01:54:14;11.60;99.90
24148;DHT22;12309;51.450;-2.624;2023-05-10T01:56:42;11.40;99.90
24148;DHT22;12309;51.450;-2.624;2023-05-10T01:59:12;11.50;99.90
24148;DHT22;12309;51.450;-2.624;2023-05-10T02:01:40;11.50;99.90
24148;DHT22;12309;51.450;-2.624;2023-05-10T02:04:07;11.50;99.90
24148;DHT22;12309;51.450;-2.624;2023-05-10T02:06:34;11.40;99.90
24148;DHT22;12309;51.450;-2.624;2023-05-10T02:09:01;11.40;99.90
24148;DHT22;12309;51.450;-2.624;2023-05-10T02:11:28;11.70;99.90
24148;DHT22;12309;51.450;-2.624;2023-05-10T02:13:55;11.30;99.90
24148;DHT22;12309;51.450;-2.624;2023-05-10T02:16:24;11.30;99.90
24148;DHT22;12309;51.450;-2.624;2023-05-10T02:18:59;11.40;99.90
24148;DHT22;12309;51.450;-2.624;2023-05-10T02:21:27;11.40;99.90
24148;DHT22;12309;51.450;-2.624;2023-05-10T02:23:54;11.70;99.90
24148;DHT22;12309;51.450;-2.624;2023-05-10T02:26:22;11.40;99.90
24148;DHT22;12309;51.450;-2.624;2023-05-10T02:28:49;11.40;99.90
24148;DHT22;12309;51.450;-2.624;2023-05-10T02:31:16;11.50;99.90
24148;DHT22;12309;51.450;-2.624;2023-05-10T02:33:43;11.60;99.90
24148;DHT22;12309;51.450;-2.624;2023-05-10T02:36:10;11.50;99.90
24148;DHT22;12309;51.450;-2.624;2023-05-10T02:38:37;11.30;99.90
24148;DHT22;12309;51.450;-2.624;2023-05-10T02:41:05;11.50;99.90
24148;DHT22;12309;51.450;-2.624;2023-05-10T02:43:32;11.60;99.90
24148;DHT22;12309;51.450;-2.624;2023-05-10T02:45:58;11.60;99.90
24148;DHT22;12309;51.450;-2.624;2023-05-10T02:48:24;11.60;99.90
24148;DHT22;12309;51.450;-2.624;2023-05-10T02:50:52;11.60;99.90
24148;DHT22;12309;51.450;-2.624;2023-05-10T02:53:23;11.70;99.90
24148;DHT22;12309;51.450;-2.624;2023-05-10T02:55:54;11.60;99.90
24148;DHT22;12309;51.450;-2.624;2023-05-10T03:00:48;11.60;99.90
24148;DHT22;12309;51.450;-2.624;2023-05-10T03:03:13;11.60;99.90
24148;DHT22;12309;51.450;-2.624;2023-05-10T03:05:39;11.60;99.90
24148;DHT22;12309;51.450;-2.624;2023-05-10T03:08:04;11.60;99.90
24148;DHT22;12309;51.450;-2.624;2023-05-10T03:10:32;11.60;99.90
24148;DHT22;12309;51.450;-2.624;2023-05-10T03:13:28;11.60;99.90
24148;DHT22;12309;51.450;-2.624;2023-05-10T03:16:22;11.60;99.90
24148;DHT22;12309;51.450;-2.624;2023-05-10T03:19:15;11.50;99.90
24148;DHT22;12309;51.450;-2.624;2023-05-10T03:21:44;11.60;99.90
24148;DHT22;12309;51.450;-2.624;2023-05-10T03:24:13;11.20;99.90
24148;DHT22;12309;51.450;-2.624;2023-05-10T03:26:43;11.50;99.90
24148;DHT22;12309;51.450;-2.624;2023-05-10T03:29:11;11.50;99.90
24148;DHT22;12309;51.450;-2.624;2023-05-10T03:31:38;11.50;99.90
24148;DHT22;12309;51.450;-2.624;2023-05-10T03:34:04;11.50;99.90
24148;DHT22;12309;51.450;-2.624;2023-05-10T03:36:30;11.50;99.90
24148;DHT22;12309;51.450;-2.624;2023-05-10T03:38:55;11.50;99.90
24148;DHT22;12309;51.450;-2.624;2023-05-10T03:41:21;11.50;99.90
24148;DHT22;12309;51.450;-2.624;2023-05-10T03:43:46;11.50;99.90
24148;DHT22;12309;51.450;-2.624;2023-05-10T03:46:12;11.50;99.90
24148;DHT22;12309;51.450;-2.624;2023-05-10T03:48:38;11.40;99.90
24148;DHT22;12309;51.450;-2.624;2023-05-10T03:51:04;11.40;99.90
24148;DHT22;12309;51.450;-2.624;2023-05-10T03:53:30;11.40;99.90
24148;DHT22;12309;51.450;-2.624;2023-05-10T03:55:55;11.50;99.90
24148;DHT22;12309;51.450;-2.624;2023-05-10T03:58:21;11.50;99.90
24148;DHT22;12309;51.450;-2.624;2023-05-10T04:03:13;11.40;99.90
24148;DHT22;12309;51.450;-2.624;2023-05-10T04:05:39;11.50;99.90
24148;DHT22;12309;51.450;-2.624;2023-05-10T04:08:05;11.40;99.90
24148;DHT22;12309;51.450;-2.624;2023-05-10T04:10:31;11.30;99.90
24148;DHT22;12309;51.450;-2.624;2023-05-10T04:12:57;11.40;99.90
24148;DHT22;12309;51.450;-2.624;2023-05-10T04:15:22;11.40;99.90
24148;DHT22;12309;51.450;-2.624;2023-05-10T04:17:48;11.50;99.90
24148;DHT22;12309;51.450;-2.624;2023-05-10T04:20:14;11.40;99.90
24148;DHT22;12309;51.450;-2.624;2023-05-10T04:22:40;11.40;99.90
24148;DHT22;12309;51.450;-2.624;2023-05-10T04:25:06;11.40;99.90
24148;DHT22;12309;51.450;-2.624;2023-05-10T04:27:32;11.30;99.90
24148;DHT22;12309;51.450;-2.624;2023-05-10T04:29:58;11.30;99.90
24148;DHT22;12309;51.450;-2.624;2023-05-10T04:32:23;11.30;99.90
24148;DHT22;12309;51.450;-2.624;2023-05-10T04:34:49;11.30;99.90
24148;DHT22;12309;51.450;-2.624;2023-05-10T04:39:43;11.40;99.90
24148;DHT22;12309;51.450;-2.624;2023-05-10T04:42:08;11.40;99.90
24148;DHT22;12309;51.450;-2.624;2023-05-10T04:44:34;11.50;99.90
24148;DHT22;12309;51.450;-2.624;2023-05-10T04:47:00;11.50;99.90
24148;DHT22;12309;51.450;-2.624;2023-05-10T04:49:27;11.70;99.90
24148;DHT22;12309;51.450;-2.624;2023-05-10T04:51:53;11.60;99.90
24148;DHT22;12309;51.450;-2.624;2023-05-10T04:54:19;11.70;99.90
24148;DHT22;12309;51.450;-2.624;2023-05-10T04:56:44;11.70;99.90
24148;DHT22;12309;51.450;-2.624;2023-05-10T04:59:10;11.70;99.90
24148;DHT22;12309;51.450;-2.624;2023-05-10T05:01:36;11.80;99.90
24148;DHT22;12309;51.450;-2.624;2023-05-10T05:04:01;11.80;99.90
24148;DHT22;12309;51.450;-2.624;2023-05-10T05:06:27;11.80;99.90
24148;DHT22;12309;51.450;-2.624;2023-05-10T05:08:53;11.90;99.90
24148;DHT22;12309;51.450;-2.624;2023-05-10T05:11:18;11.90;99.90
24148;DHT22;12309;51.450;-2.624;2023-05-10T05:13:44;11.80;99.90
24148;DHT22;12309;51.450;-2.624;2023-05-10T05:16:09;11.80;99.90
24148;DHT22;12309;51.450;-2.624;2023-05-10T05:18:36;11.80;99.90
24148;DHT22;12309;51.450;-2.624;2023-05-10T05:21:02;11.90;99.90
24148;DHT22;12309;51.450;-2.624;2023-05-10T05:23:28;11.80;99.90
24148;DHT22;12309;51.450;-2.624;2023-05-10T05:25:53;11.90;99.90
24148;DHT22;12309;51.450;-2.624;2023-05-10T05:28:20;11.90;99.90
24148;DHT22;12309;51.450;-2.624;2023-05-10T05:30:46;11.80;99.90
24148;DHT22;12309;51.450;-2.624;2023-05-10T05:33:13;11.80;99.90
24148;DHT22;12309;51.450;-2.624;2023-05-10T05:35:39;11.80;99.90
24148;DHT22;12309;51.450;-2.624;2023-05-10T05:38:05;11.80;99.90
24148;DHT22;12309;51.450;-2.624;2023-05-10T05:40:31;11.80;99.90
24148;DHT22;12309;51.450;-2.624;2023-05-10T05:42:57;11.90;99.90
24148;DHT22;12309;51.450;-2.624;2023-05-10T05:45:22;11.90;99.90
24148;DHT22;12309;51.450;-2.624;2023-05-10T05:50:14;12.00;99.90
24148;DHT22;12309;51.450;-2.624;2023-05-10T05:52:39;12.10;99.90
24148;DHT22;12309;51.450;-2.624;2023-05-10T05:55:05;12.10;99.90
24148;DHT22;12309;51.450;-2.624;2023-05-10T05:57:31;12.20;99.90
24148;DHT22;12309;51.450;-2.624;2023-05-10T05:59:56;12.30;99.90
24148;DHT22;12309;51.450;-2.624;2023-05-10T06:02:22;12.40;99.90
24148;DHT22;12309;51.450;-2.624;2023-05-10T06:04:48;12.40;99.90
24148;DHT22;12309;51.450;-2.624;2023-05-10T06:09:39;12.60;99.90
24148;DHT22;12309;51.450;-2.624;2023-05-10T06:12:05;12.70;99.90
24148;DHT22;12309;51.450;-2.624;2023-05-10T06:14:30;12.90;99.90
24148;DHT22;12309;51.450;-2.624;2023-05-10T06:16:56;12.90;99.90
24148;DHT22;12309;51.450;-2.624;2023-05-10T06:19:22;12.90;99.90
24148;DHT22;12309;51.450;-2.624;2023-05-10T06:21:48;13.10;99.90
24148;DHT22;12309;51.450;-2.624;2023-05-10T06:24:13;13.80;99.90
24148;DHT22;12309;51.450;-2.624;2023-05-10T06:26:39;13.20;99.90
24148;DHT22;12309;51.450;-2.624;2023-05-10T06:29:04;13.30;99.90
24148;DHT22;12309;51.450;-2.624;2023-05-10T06:31:30;13.30;99.90
24148;DHT22;12309;51.450;-2.624;2023-05-10T06:33:55;13.40;99.90
24148;DHT22;12309;51.450;-2.624;2023-05-10T06:36:21;13.50;99.90
24148;DHT22;12309;51.450;-2.624;2023-05-10T06:38:47;13.60;99.90
24148;DHT22;12309;51.450;-2.624;2023-05-10T06:41:13;13.70;99.90
24148;DHT22;12309;51.450;-2.624;2023-05-10T06:43:38;13.60;99.90
24148;DHT22;12309;51.450;-2.624;2023-05-10T06:46:06;13.60;99.90
24148;DHT22;12309;51.450;-2.624;2023-05-10T06:48:32;13.80;99.90
24148;DHT22;12309;51.450;-2.624;2023-05-10T06:50:58;13.70;99.90
24148;DHT22;12309;51.450;-2.624;2023-05-10T06:53:24;13.70;99.90
24148;DHT22;12309;51.450;-2.624;2023-05-10T06:55:49;13.50;99.90
24148;DHT22;12309;51.450;-2.624;2023-05-10T06:58:15;13.60;99.90
24148;DHT22;12309;51.450;-2.624;2023-05-10T07:00:41;13.50;99.90
24148;DHT22;12309;51.450;-2.624;2023-05-10T07:03:11;13.50;99.90
24148;DHT22;12309;51.450;-2.624;2023-05-10T07:05:37;13.60;99.90
24148;DHT22;12309;51.450;-2.624;2023-05-10T07:08:03;13.80;99.90
24148;DHT22;12309;51.450;-2.624;2023-05-10T07:10:28;13.80;99.90
24148;DHT22;12309;51.450;-2.624;2023-05-10T07:12:55;13.90;99.90
24148;DHT22;12309;51.450;-2.624;2023-05-10T07:15:20;13.90;99.90
24148;DHT22;12309;51.450;-2.624;2023-05-10T07:17:46;14.00;99.90
24148;DHT22;12309;51.450;-2.624;2023-05-10T07:20:12;14.10;99.90
24148;DHT22;12309;51.450;-2.624;2023-05-10T07:22:37;14.10;99.90
24148;DHT22;12309;51.450;-2.624;2023-05-10T07:25:03;14.20;99.90
24148;DHT22;12309;51.450;-2.624;2023-05-10T07:27:29;14.20;99.90
24148;DHT22;12309;51.450;-2.624;2023-05-10T07:29:55;14.30;99.90
24148;DHT22;12309;51.450;-2.624;2023-05-10T07:32:21;14.20;99.90
24148;DHT22;12309;51.450;-2.624;2023-05-10T07:34:47;14.10;99.90
24148;DHT22;12309;51.450;-2.624;2023-05-10T07:37:13;14.30;99.90
24148;DHT22;12309;51.450;-2.624;2023-05-10T07:39:38;14.40;99.90
24148;DHT22;12309;51.450;-2.624;2023-05-10T07:42:04;14.70;99.90
24148;DHT22;12309;51.450;-2.624;2023-05-10T07:44:29;14.60;99.90
24148;DHT22;12309;51.450;-2.624;2023-05-10T07:46:55;14.40;99.90
24148;DHT22;12309;51.450;-2.624;2023-05-10T07:49:22;14.20;99.90
24148;DHT22;12309;51.450;-2.624;2023-05-10T07:51:49;14.10;99.90
24148;DHT22;12309;51.450;-2.624;2023-05-10T07:54:15;14.10;99.90
24148;DHT22;12309;51.450;-2.624;2023-05-10T07:56:41;13.90;99.90
24148;DHT22;12309;51.450;-2.624;2023-05-10T07:59:15;13.70;99.90
24148;DHT22;12309;51.450;-2.624;2023-05-10T08:01:42;13.40;99.90
24148;DHT22;12309;51.450;-2.624;2023-05-10T08:04:07;13.50;99.90
24148;DHT22;12309;51.450;-2.624;2023-05-10T08:06:34;13.40;99.90
24148;DHT22;12309;51.450;-2.624;2023-05-10T08:09:00;13.20;99.90
24148;DHT22;12309;51.450;-2.624;2023-05-10T08:13:53;13.50;99.90
24148;DHT22;12309;51.450;-2.624;2023-05-10T08:16:19;13.70;99.90
24148;DHT22;12309;51.450;-2.624;2023-05-10T08:18:46;13.70;99.90
24148;DHT22;12309;51.450;-2.624;2023-05-10T08:21:12;13.60;99.90
24148;DHT22;12309;51.450;-2.624;2023-05-10T08:23:38;13.60;99.90
24148;DHT22;12309;51.450;-2.624;2023-05-10T08:26:04;13.60;99.90
24148;DHT22;12309;51.450;-2.624;2023-05-10T08:33:22;13.90;99.90
24148;DHT22;12309;51.450;-2.624;2023-05-10T08:38:14;14.30;99.90
24148;DHT22;12309;51.450;-2.624;2023-05-10T08:40:43;14.40;99.90
24148;DHT22;12309;51.450;-2.624;2023-05-10T08:43:11;14.60;99.90
24148;DHT22;12309;51.450;-2.624;2023-05-10T08:45:40;14.80;99.90
24148;DHT22;12309;51.450;-2.624;2023-05-10T08:48:07;14.90;99.90
24148;DHT22;12309;51.450;-2.624;2023-05-10T08:50:36;14.90;99.90
24148;DHT22;12309;51.450;-2.624;2023-05-10T08:53:05;15.00;99.90
24148;DHT22;12309;51.450;-2.624;2023-05-10T08:55:35;16.70;99.90
24148;DHT22;12309;51.450;-2.624;2023-05-10T08:58:05;15.30;99.90
24148;DHT22;12309;51.450;-2.624;2023-05-10T09:00:32;15.20;99.90
24148;DHT22;12309;51.450;-2.624;2023-05-10T09:02:58;15.30;99.90
24148;DHT22;12309;51.450;-2.624;2023-05-10T09:05:24;15.50;99.90
24148;DHT22;12309;51.450;-2.624;2023-05-10T09:07:50;15.70;99.90
24148;DHT22;12309;51.450;-2.624;2023-05-10T09:12:44;15.50;99.90
24148;DHT22;12309;51.450;-2.624;2023-05-10T09:15:11;15.50;99.90
24148;DHT22;12309;51.450;-2.624;2023-05-10T09:17:38;15.30;99.90
24148;DHT22;12309;51.450;-2.624;2023-05-10T09:20:06;15.20;99.90
24148;DHT22;12309;51.450;-2.624;2023-05-10T09:22:33;15.20;99.90
24148;DHT22;12309;51.450;-2.624;2023-05-10T09:25:12;15.20;99.90
24148;DHT22;12309;51.450;-2.624;2023-05-10T09:27:40;15.10;99.90
24148;DHT22;12309;51.450;-2.624;2023-05-10T09:30:06;14.90;99.90
24148;DHT22;12309;51.450;-2.624;2023-05-10T09:32:43;14.90;99.90
24148;DHT22;12309;51.450;-2.624;2023-05-10T09:35:17;15.10;99.90
24148;DHT22;12309;51.450;-2.624;2023-05-10T09:37:45;14.80;99.90
24148;DHT22;12309;51.450;-2.624;2023-05-10T09:40:16;14.90;99.90
24148;DHT22;12309;51.450;-2.624;2023-05-10T09:42:43;15.00;99.90
24148;DHT22;12309;51.450;-2.624;2023-05-10T09:45:15;15.30;99.90
24148;DHT22;12309;51.450;-2.624;2023-05-10T09:47:41;14.90;99.90
24148;DHT22;12309;51.450;-2.624;2023-05-10T09:50:07;15.20;99.90
24148;DHT22;12309;51.450;-2.624;2023-05-10T09:52:56;15.40;99.90
24148;DHT22;12309;51.450;-2.624;2023-05-10T09:55:39;16.40;99.90
24148;DHT22;12309;51.450;-2.624;2023-05-10T09:58:05;17.20;99.90
24148;DHT22;12309;51.450;-2.624;2023-05-10T10:00:45;17.40;99.90
24148;DHT22;12309;51.450;-2.624;2023-05-10T10:03:19;17.20;99.90
24148;DHT22;12309;51.450;-2.624;2023-05-10T10:05:46;17.40;99.90
24148;DHT22;12309;51.450;-2.624;2023-05-10T10:08:13;17.50;99.90
24148;DHT22;12309;51.450;-2.624;2023-05-10T10:10:40;17.30;99.90
24148;DHT22;12309;51.450;-2.624;2023-05-10T10:13:06;16.90;99.90
24148;DHT22;12309;51.450;-2.624;2023-05-10T10:15:36;17.30;99.90
24148;DHT22;12309;51.450;-2.624;2023-05-10T10:18:02;16.70;99.90
24148;DHT22;12309;51.450;-2.624;2023-05-10T10:20:29;17.30;99.90
24148;DHT22;12309;51.450;-2.624;2023-05-10T10:22:55;17.70;99.90
24148;DHT22;12309;51.450;-2.624;2023-05-10T10:25:21;18.10;99.90
24148;DHT22;12309;51.450;-2.624;2023-05-10T10:35:53;17.30;99.90
24148;DHT22;12309;51.450;-2.624;2023-05-10T10:38:20;17.10;99.90
24148;DHT22;12309;51.450;-2.624;2023-05-10T10:40:47;17.10;99.90
24148;DHT22;12309;51.450;-2.624;2023-05-10T10:43:27;16.70;99.90
24148;DHT22;12309;51.450;-2.624;2023-05-10T10:46:16;16.40;99.90
24148;DHT22;12309;51.450;-2.624;2023-05-10T10:49:12;16.60;99.90
24148;DHT22;12309;51.450;-2.624;2023-05-10T10:51:40;16.90;99.90
24148;DHT22;12309;51.450;-2.624;2023-05-10T10:54:09;17.00;99.90
24148;DHT22;12309;51.450;-2.624;2023-05-10T10:56:35;16.90;99.90
24148;DHT22;12309;51.450;-2.624;2023-05-10T10:59:01;16.80;99.90
24148;DHT22;12309;51.450;-2.624;2023-05-10T11:01:35;16.80;99.90
24148;DHT22;12309;51.450;-2.624;2023-05-10T11:06:34;16.50;99.90
24148;DHT22;12309;51.450;-2.624;2023-05-10T11:09:08;16.10;99.90
24148;DHT22;12309;51.450;-2.624;2023-05-10T11:11:35;16.00;99.90
24148;DHT22;12309;51.450;-2.624;2023-05-10T11:14:05;16.00;99.90
24148;DHT22;12309;51.450;-2.624;2023-05-10T11:16:44;16.00;99.90
24148;DHT22;12309;51.450;-2.624;2023-05-10T11:19:15;16.20;99.90
24148;DHT22;12309;51.450;-2.624;2023-05-10T11:21:49;16.20;99.90
24148;DHT22;12309;51.450;-2.624;2023-05-10T11:24:17;16.10;99.90
24148;DHT22;12309;51.450;-2.624;2023-05-10T11:26:43;16.40;99.90
24148;DHT22;12309;51.450;-2.624;2023-05-10T11:29:08;16.80;99.90
24148;DHT22;12309;51.450;-2.624;2023-05-10T11:31:34;17.10;99.90
24148;DHT22;12309;51.450;-2.624;2023-05-10T11:34:00;17.20;99.90
24148;DHT22;12309;51.450;-2.624;2023-05-10T11:36:33;17.30;99.90
24148;DHT22;12309;51.450;-2.624;2023-05-10T11:39:00;18.00;99.90
24148;DHT22;12309;51.450;-2.624;2023-05-10T11:41:28;18.00;99.90
24148;DHT22;12309;51.450;-2.624;2023-05-10T11:43:54;18.30;99.90
24148;DHT22;12309;51.450;-2.624;2023-05-10T11:46:22;19.20;99.90
24148;DHT22;12309;51.450;-2.624;2023-05-10T11:48:53;19.30;99.90
24148;DHT22;12309;51.450;-2.624;2023-05-10T11:51:22;18.70;1.00
24148;DHT22;12309;51.450;-2.624;2023-05-10T11:53:50;18.90;29.50
24148;DHT22;12309;51.450;-2.624;2023-05-10T11:56:16;18.80;1.00
24148;DHT22;12309;51.450;-2.624;2023-05-10T11:58:41;18.80;70.70
24148;DHT22;12309;51.450;-2.624;2023-05-10T12:01:07;18.50;51.50
24148;DHT22;12309;51.450;-2.624;2023-05-10T12:03:34;18.20;1.00
24148;DHT22;12309;51.450;-2.624;2023-05-10T12:08:29;17.90;1.00
24148;DHT22;12309;51.450;-2.624;2023-05-10T12:11:06;17.90;1.00
24148;DHT22;12309;51.450;-2.624;2023-05-10T12:13:36;17.60;1.00
24148;DHT22;12309;51.450;-2.624;2023-05-10T12:16:16;17.90;1.00
24148;DHT22;12309;51.450;-2.624;2023-05-10T12:18:42;17.90;1.00
24148;DHT22;12309;51.450;-2.624;2023-05-10T12:21:10;17.60;1.00
24148;DHT22;12309;51.450;-2.624;2023-05-10T12:23:36;17.50;1.00
24148;DHT22;12309;51.450;-2.624;2023-05-10T12:26:02;17.60;1.00
24148;DHT22;12309;51.450;-2.624;2023-05-10T12:28:32;17.70;1.00
24148;DHT22;12309;51.450;-2.624;2023-05-10T12:30:59;17.70;1.00
24148;DHT22;12309;51.450;-2.624;2023-05-10T12:33:25;18.60;1.00
24148;DHT22;12309;51.450;-2.624;2023-05-10T12:35:53;19.40;1.00
24148;DHT22;12309;51.450;-2.624;2023-05-10T12:38:42;19.30;1.00
24148;DHT22;12309;51.450;-2.624;2023-05-10T12:41:15;20.10;25.60
24148;DHT22;12309;51.450;-2.624;2023-05-10T12:43:41;19.50;34.10
24148;DHT22;12309;51.450;-2.624;2023-05-10T12:46:08;18.80;1.00
24148;DHT22;12309;51.450;-2.624;2023-05-10T12:48:36;19.00;1.00
24148;DHT22;12309;51.450;-2.624;2023-05-10T12:51:02;19.60;99.90
24148;DHT22;12309;51.450;-2.624;2023-05-10T12:53:28;18.80;99.90
24148;DHT22;12309;51.450;-2.624;2023-05-10T12:55:54;18.20;1.00
24148;DHT22;12309;51.450;-2.624;2023-05-10T12:58:20;18.10;99.90
24148;DHT22;12309;51.450;-2.624;2023-05-10T13:00:45;18.70;1.00
24148;DHT22;12309;51.450;-2.624;2023-05-10T13:03:11;19.20;1.00
24148;DHT22;12309;51.450;-2.624;2023-05-10T13:05:37;19.60;99.90
24148;DHT22;12309;51.450;-2.624;2023-05-10T13:08:03;19.80;99.90
24148;DHT22;12309;51.450;-2.624;2023-05-10T13:10:30;19.20;1.00
24148;DHT22;12309;51.450;-2.624;2023-05-10T13:12:57;19.20;1.00
24148;DHT22;12309;51.450;-2.624;2023-05-10T13:15:23;18.80;99.90
24148;DHT22;12309;51.450;-2.624;2023-05-10T13:17:48;19.60;1.00
24148;DHT22;12309;51.450;-2.624;2023-05-10T13:20:14;20.00;1.00
24148;DHT22;12309;51.450;-2.624;2023-05-10T13:22:41;20.50;1.00
24148;DHT22;12309;51.450;-2.624;2023-05-10T13:25:07;20.70;97.00
24148;DHT22;12309;51.450;-2.624;2023-05-10T13:27:33;20.60;1.00
24148;DHT22;12309;51.450;-2.624;2023-05-10T13:29:59;20.70;99.90
24148;DHT22;12309;51.450;-2.624;2023-05-10T13:32:25;20.50;1.00
24148;DHT22;12309;51.450;-2.624;2023-05-10T13:34:51;21.20;1.00
24148;DHT22;12309;51.450;-2.624;2023-05-10T13:37:17;20.80;1.00
24148;DHT22;12309;51.450;-2.624;2023-05-10T13:39:42;21.20;1.00
24148;DHT22;12309;51.450;-2.624;2023-05-10T13:42:08;22.10;99.90
24148;DHT22;12309;51.450;-2.624;2023-05-10T13:44:33;22.00;1.00
24148;DHT22;12309;51.450;-2.624;2023-05-10T13:46:59;21.70;1.00
24148;DHT22;12309;51.450;-2.624;2023-05-10T13:49:25;21.80;1.00
24148;DHT22;12309;51.450;-2.624;2023-05-10T13:51:50;21.90;99.90
24148;DHT22;12309;51.450;-2.624;2023-05-10T13:54:17;21.20;99.90
24148;DHT22;12309;51.450;-2.624;2023-05-10T13:56:45;22.30;99.90
24148;DHT22;12309;51.450;-2.624;2023-05-10T13:59:12;22.00;99.90
24148;DHT22;12309;51.450;-2.624;2023-05-10T14:01:39;21.30;1.00
24148;DHT22;12309;51.450;-2.624;2023-05-10T14:04:05;21.30;1.00
24148;DHT22;12309;51.450;-2.624;2023-05-10T14:06:31;22.10;1.00
24148;DHT22;12309;51.450;-2.624;2023-05-10T14:08:57;22.10;1.00
24148;DHT22;12309;51.450;-2.624;2023-05-10T14:11:22;21.80;1.00
24148;DHT22;12309;51.450;-2.624;2023-05-10T14:13:48;22.00;1.00
24148;DHT22;12309;51.450;-2.624;2023-05-10T14:16:14;22.30;1.00
24148;DHT22;12309;51.450;-2.624;2023-05-10T14:18:40;22.40;1.00
24148;DHT22;12309;51.450;-2.624;2023-05-10T14:21:06;21.10;1.00
24148;DHT22;12309;51.450;-2.624;2023-05-10T14:23:31;21.30;1.00
24148;DHT22;12309;51.450;-2.624;2023-05-10T14:25:57;22.30;1.00
24148;DHT22;12309;51.450;-2.624;2023-05-10T14:28:23;21.60;1.00
24148;DHT22;12309;51.450;-2.624;2023-05-10T14:30:49;21.90;99.90
24148;DHT22;12309;51.450;-2.624;2023-05-10T14:33:16;22.50;99.90
24148;DHT22;12309;51.450;-2.624;2023-05-10T14:35:42;22.00;1.00
24148;DHT22;12309;51.450;-2.624;2023-05-10T14:38:08;22.20;99.90
24148;DHT22;12309;51.450;-2.624;2023-05-10T14:40:33;22.70;99.90
24148;DHT22;12309;51.450;-2.624;2023-05-10T14:43:00;23.00;99.90
24148;DHT22;12309;51.450;-2.624;2023-05-10T14:45:25;21.80;1.00
24148;DHT22;12309;51.450;-2.624;2023-05-10T14:47:51;22.00;99.90
24148;DHT22;12309;51.450;-2.624;2023-05-10T14:50:17;22.40;1.00
24148;DHT22;12309;51.450;-2.624;2023-05-10T14:52:43;22.60;99.90
24148;DHT22;12309;51.450;-2.624;2023-05-10T14:55:10;22.60;1.00
24148;DHT22;12309;51.450;-2.624;2023-05-10T14:57:35;22.80;1.00
24148;DHT22;12309;51.450;-2.624;2023-05-10T15:00:02;22.80;99.90
24148;DHT22;12309;51.450;-2.624;2023-05-10T15:02:29;22.90;1.00
24148;DHT22;12309;51.450;-2.624;2023-05-10T15:04:54;22.50;1.00
24148;DHT22;12309;51.450;-2.624;2023-05-10T15:07:20;22.30;1.00
24148;DHT22;12309;51.450;-2.624;2023-05-10T15:09:45;22.60;1.00
24148;DHT22;12309;51.450;-2.624;2023-05-10T15:12:11;22.60;99.90
24148;DHT22;12309;51.450;-2.624;2023-05-10T15:14:37;22.10;1.00
24148;DHT22;12309;51.450;-2.624;2023-05-10T15:17:03;22.40;1.00
24148;DHT22;12309;51.450;-2.624;2023-05-10T15:19:29;22.50;1.00
24148;DHT22;12309;51.450;-2.624;2023-05-10T15:21:55;21.50;1.00
24148;DHT22;12309;51.450;-2.624;2023-05-10T15:24:21;21.00;99.90
24148;DHT22;12309;51.450;-2.624;2023-05-10T15:26:47;21.50;1.00
24148;DHT22;12309;51.450;-2.624;2023-05-10T15:29:13;21.40;99.90
24148;DHT22;12309;51.450;-2.624;2023-05-10T15:31:48;21.20;1.00
24148;DHT22;12309;51.450;-2.624;2023-05-10T15:34:15;21.50;1.00
24148;DHT22;12309;51.450;-2.624;2023-05-10T15:36:41;21.70;1.00
24148;DHT22;12309;51.450;-2.624;2023-05-10T15:39:06;21.40;1.00
24148;DHT22;12309;51.450;-2.624;2023-05-10T15:41:32;21.70;1.00
24148;DHT22;12309;51.450;-2.624;2023-05-10T15:43:58;21.40;99.90
24148;DHT22;12309;51.450;-2.624;2023-05-10T15:46:25;20.60;1.00
24148;DHT22;12309;51.450;-2.624;2023-05-10T15:48:51;21.00;99.90
24148;DHT22;12309;51.450;-2.624;2023-05-10T15:51:17;21.20;99.90
24148;DHT22;12309;51.450;-2.624;2023-05-10T15:53:44;20.90;99.90
24148;DHT22;12309;51.450;-2.624;2023-05-10T15:56:10;20.90;1.00
24148;DHT22;12309;51.450;-2.624;2023-05-10T15:58:37;20.70;1.00
24148;DHT22;12309;51.450;-2.624;2023-05-10T16:01:03;20.80;1.00
24148;DHT22;12309;51.450;-2.624;2023-05-10T16:03:30;20.80;1.00
24148;DHT22;12309;51.450;-2.624;2023-05-10T16:05:56;20.10;99.90
24148;DHT22;12309;51.450;-2.624;2023-05-10T16:08:21;20.60;99.90
24148;DHT22;12309;51.450;-2.624;2023-05-10T16:10:47;21.00;1.00